Time;durP1;ratioP1;P1;durP2;ratioP2;P2;SDS_P1;SDS_P2;PMS_P1;PMS_P2;Temp;Humidity;BMP_temperature;BMP_pressure;BME280_temperature;BME280_humidity;BME280_pressure;Samples;Min_cycle;Max_cycle;Signal;HPM_P1;HPM_P2
2023/02/15 00:00:04;;;;;;;53.13;23.85;;;;;;;2.21;100.00;102661.13;4992105;28;20125;-81
2023/02/15 00:02:30;;;;;;;58.47;24.00;;;;;;;2.19;100.00;102656.06;5002306;28;20041;-79
2023/02/15 00:04:56;;;;;;;55.08;23.08;;;;;;;2.20;100.00;102654.31;5009591;28;20030;-79
2023/02/15 00:07:22;;;;;;;58.53;24.70;;;;;;;2.11;100.00;102655.50;4998854;28;20034;-79
2023/02/15 00:09:48;;;;;;;57.40;24.38;;;;;;;2.11;100.00;102642.69;5012431;28;20044;-79
2023/02/15 00:12:15;;;;;;;60.95;25.35;;;;;;;2.07;100.00;102642.00;4989490;28;20463;-80
2023/02/15 00:14:41;;;;;;;55.03;24.05;;;;;;;2.03;100.00;102649.81;5007637;28;20568;-80
2023/02/15 00:17:08;;;;;;;61.28;24.90;;;;;;;2.02;100.00;102646.44;4994650;28;20038;-81
2023/02/15 00:19:33;;;;;;;58.05;25.95;;;;;;;2.02;100.00;102649.00;4994846;28;20030;-79
2023/02/15 00:22:00;;;;;;;53.25;23.83;;;;;;;1.91;100.00;102639.13;4997422;28;20041;-79
2023/02/15 00:24:26;;;;;;;66.55;27.52;;;;;;;1.92;100.00;102643.38;4997332;28;20694;-79
2023/02/15 00:26:52;;;;;;;62.38;25.88;;;;;;;1.92;100.00;102643.38;4996263;28;20514;-79
2023/02/15 00:29:19;;;;;;;61.13;25.42;;;;;;;1.94;100.00;102640.75;4994299;28;20033;-80
2023/02/15 00:31:45;;;;;;;60.25;25.33;;;;;;;1.96;100.00;102633.88;4992065;28;20565;-80
2023/02/15 00:34:23;;;;;;;59.97;27.23;;;;;;;1.86;100.00;102635.06;5009456;28;20030;-80
2023/02/15 00:36:49;;;;;;;60.95;25.95;;;;;;;1.89;100.00;102633.25;4991714;28;20602;-78
2023/02/15 00:39:16;;;;;;;57.17;24.75;;;;;;;1.88;100.00;102636.69;4994540;28;20041;-80
2023/02/15 00:41:43;;;;;;;63.88;26.33;;;;;;;1.80;100.00;102623.34;4993253;28;20034;-79
2023/02/15 00:44:09;;;;;;;63.95;27.60;;;;;;;1.85;100.00;102630.84;4983882;28;20033;-79
2023/02/15 00:46:35;;;;;;;68.03;26.67;;;;;;;1.76;100.00;102629.44;5008977;28;20038;-79
2023/02/15 00:49:01;;;;;;;61.95;26.02;;;;;;;1.81;100.00;102630.13;4992619;28;20022;-80
2023/02/15 00:51:26;;;;;;;62.63;26.13;;;;;;;1.68;100.00;102628.91;4989228;28;20037;-79
2023/02/15 00:53:52;;;;;;;62.25;24.80;;;;;;;1.68;100.00;102624.59;4991787;28;20033;-79
2023/02/15 00:56:18;;;;;;;63.90;27.38;;;;;;;1.65;100.00;102634.09;4970863;28;20046;-80
2023/02/15 00:58:43;;;;;;;65.47;25.73;;;;;;;1.67;100.00;102633.16;4990360;28;20038;-78
2023/02/15 01:01:19;;;;;;;62.72;26.02;;;;;;;1.69;100.00;102641.59;4994801;28;20037;-79
2023/02/15 01:03:46;;;;;;;62.05;25.30;;;;;;;1.68;100.00;102642.50;4977530;28;20049;-79
2023/02/15 01:06:12;;;;;;;61.10;26.40;;;;;;;1.57;100.00;102638.66;4977301;28;20044;-79
2023/02/15 01:08:38;;;;;;;62.95;25.38;;;;;;;1.59;100.00;102637.72;4992984;28;20044;-79
2023/02/15 01:11:10;;;;;;;60.08;25.25;;;;;;;1.63;100.00;102641.00;4998504;28;20034;-80
2023/02/15 01:13:37;;;;;;;60.43;26.07;;;;;;;1.58;100.00;102638.59;5011600;28;20065;-79
2023/02/15 01:16:04;;;;;;;61.78;25.10;;;;;;;1.58;100.00;102636.03;4977561;28;20029;-81
2023/02/15 01:18:30;;;;;;;62.42;26.85;;;;;;;1.58;100.00;102638.59;4993074;28;20029;-80
2023/02/15 01:20:57;;;;;;;65.95;27.00;;;;;;;1.55;100.00;102633.59;4990840;28;23348;-79
2023/02/15 01:23:22;;;;;;;64.00;26.80;;;;;;;1.47;100.00;102628.75;4993178;28;20030;-79
2023/02/15 01:25:48;;;;;;;60.15;26.35;;;;;;;1.47;100.00;102625.31;5005151;28;20417;-80
2023/02/15 01:28:13;;;;;;;64.53;26.35;;;;;;;1.50;100.00;102630.34;4991441;28;20049;-80
2023/02/15 01:30:39;;;;;;;67.68;28.70;;;;;;;1.47;100.00;102620.22;5003450;28;20736;-80
2023/02/15 01:33:04;;;;;;;68.32;27.83;;;;;;;1.49;100.00;102619.28;4990568;28;20037;-79
2023/02/15 01:35:30;;;;;;;63.55;26.92;;;;;;;1.39;100.00;102611.97;4987102;28;20037;-79
2023/02/15 01:37:56;;;;;;;71.00;28.13;;;;;;;1.31;100.00;102613.06;5004439;28;20048;-79
2023/02/15 01:40:22;;;;;;;63.42;27.10;;;;;;;1.33;100.00;102618.13;4989682;28;20037;-81
2023/02/15 01:42:53;;;;;;;69.75;27.42;;;;;;;1.40;100.00;102603.44;5002830;28;20491;-79
2023/02/15 01:45:27;;;;;;;73.47;28.80;;;;;;;1.33;100.00;102606.19;5005433;28;20080;-79
2023/02/15 01:48:03;;;;;;;68.55;27.73;;;;;;;1.34;100.00;102610.41;4982313;28;20038;-79
2023/02/15 01:50:42;;;;;;;68.60;28.30;;;;;;;1.28;100.00;102613.19;4991827;28;20038;-79
2023/02/15 01:53:16;;;;;;;68.75;27.23;;;;;;;1.29;100.00;102606.34;4990297;28;20114;-79
2023/02/15 01:56:08;;;;;;;70.93;29.17;;;;;;;1.25;100.00;102600.50;4988788;28;20042;-79
2023/02/15 01:58:36;;;;;;;68.03;27.42;;;;;;;1.27;100.00;102596.16;4965286;28;20044;-79
2023/02/15 02:01:04;;;;;;;72.55;28.75;;;;;;;1.21;100.00;102596.38;4993524;28;20100;-82
2023/02/15 02:03:38;;;;;;;66.78;27.75;;;;;;;1.15;100.00;102596.59;4975988;28;20124;-79
2023/02/15 02:06:04;;;;;;;67.47;27.33;;;;;;;1.24;100.00;102592.88;4991041;28;20064;-80
2023/02/15 02:08:30;;;;;;;71.75;30.45;;;;;;;1.19;100.00;102593.06;4993174;28;20057;-79
2023/02/15 02:10:56;;;;;;;73.43;28.65;;;;;;;1.16;100.00;102593.97;4976827;28;20198;-78
2023/02/15 02:13:21;;;;;;;68.18;28.02;;;;;;;1.13;100.00;102593.22;4979882;28;20054;-80
2023/02/15 02:15:56;;;;;;;62.38;27.50;;;;;;;1.15;100.00;102584.66;4989192;28;20042;-80
2023/02/15 02:18:38;;;;;;;67.43;27.23;;;;;;;1.15;100.00;102576.16;5007864;28;20034;-79
2023/02/15 02:21:49;;;;;;;64.53;27.52;;;;;;;1.11;100.00;102582.22;4989598;28;20088;-80
2023/02/15 02:24:38;;;;;;;66.97;27.10;;;;;;;1.04;100.00;102575.69;5007821;28;20589;-80
2023/02/15 02:27:27;;;;;;;67.47;27.45;;;;;;;1.03;100.00;102559.50;4971696;28;20038;-80
2023/02/15 02:30:04;;;;;;;72.40;28.10;;;;;;;1.00;100.00;102564.72;5004606;28;20129;-79
2023/02/15 02:32:54;;;;;;;70.25;28.45;;;;;;;0.93;100.00;102565.81;5004618;28;20069;-79
2023/02/15 02:35:28;;;;;;;70.95;28.77;;;;;;;0.99;100.00;102552.81;5019953;28;20034;-79
2023/02/15 02:38:15;;;;;;;66.25;28.05;;;;;;;0.95;100.00;102556.38;4990664;28;20038;-78
2023/02/15 02:40:59;;;;;;;69.72;27.23;;;;;;;0.97;100.00;102550.31;4991661;28;20589;-80
2023/02/15 02:43:50;;;;;;;73.50;27.92;;;;;;;0.93;100.00;102553.03;5019775;28;20076;-79
2023/02/15 02:46:30;;;;;;;68.47;27.50;;;;;;;0.92;100.00;102547.09;4979516;28;20046;-79
2023/02/15 02:48:56;;;;;;;76.38;29.25;;;;;;;0.90;100.00;102551.38;4990903;28;20048;-79
2023/02/15 02:51:22;;;;;;;65.60;28.55;;;;;;;0.92;100.00;102552.19;4993209;28;20038;-79
2023/02/15 02:53:56;;;;;;;71.00;29.88;;;;;;;0.87;100.00;102546.41;4991600;28;20410;-79
2023/02/15 02:56:31;;;;;;;67.90;27.13;;;;;;;0.88;100.00;102534.47;4975322;28;20033;-78
2023/02/15 02:58:57;;;;;;;72.07;28.95;;;;;;;0.70;100.00;102530.81;4977907;28;20037;-80
2023/02/15 03:01:46;;;;;;;67.28;28.77;;;;;;;0.67;100.00;102531.72;4972505;28;20462;-79
2023/02/15 03:04:19;;;;;;;66.80;27.90;;;;;;;0.77;100.00;102525.44;4975108;28;20045;-79
2023/02/15 03:06:52;;;;;;;72.30;28.52;;;;;;;0.70;100.00;102530.81;4983827;28;20046;-79
2023/02/15 03:09:34;;;;;;;68.28;27.80;;;;;;;0.75;100.00;102526.34;4990417;28;20026;-80
2023/02/15 03:12:03;;;;;;;63.00;28.00;;;;;;;0.70;100.00;102521.41;4973598;28;20061;-79
2023/02/15 03:14:30;;;;;;;63.30;26.15;;;;;;;0.66;100.00;102529.22;4991685;28;20080;-79
2023/02/15 03:16:58;;;;;;;63.63;26.98;;;;;;;0.77;100.00;102524.59;4988899;28;20115;-80
2023/02/15 03:19:29;;;;;;;69.22;27.17;;;;;;;0.64;100.00;102524.19;4991829;28;20034;-79
2023/02/15 03:22:09;;;;;;;68.60;27.30;;;;;;;0.60;100.00;102522.56;4974367;28;20057;-80
2023/02/15 03:24:51;;;;;;;69.70;28.80;;;;;;;0.66;100.00;102519.84;5004897;28;20491;-79
2023/02/15 03:27:25;;;;;;;64.80;27.17;;;;;;;0.60;100.00;102522.56;4976980;28;20037;-79
2023/02/15 03:29:58;;;;;;;73.53;28.52;;;;;;;0.58;100.00;102520.09;5022941;28;20676;-80
2023/02/15 03:32:26;;;;;;;73.30;29.50;;;;;;;0.54;100.00;102521.06;4983195;28;20489;-81
2023/02/15 03:34:52;;;;;;;66.07;26.58;;;;;;;0.50;100.00;102526.31;5010232;28;20046;-79
2023/02/15 03:37:35;;;;;;;69.90;28.92;;;;;;;0.65;100.00;102514.78;4995263;28;20038;-80
2023/02/15 03:43:23;;;;;;;69.40;26.63;;;;;;;0.57;100.00;102523.53;4991363;28;20046;-79
2023/02/15 03:45:56;;;;;;;67.37;26.80;;;;;;;0.60;100.00;102524.31;4980212;28;20045;-80
2023/02/15 03:48:28;;;;;;;;;;;;;;;0.61;100.00;102516.59;4993982;28;20471;-79
2023/02/15 03:53:47;;;;;;;70.22;28.02;;;;;;;0.50;100.00;102514.38;5008200;28;20088;-79
2023/02/15 03:56:12;;;;;;;76.25;30.27;;;;;;;0.45;100.00;102515.41;5010124;28;20422;-80
2023/02/15 04:04:27;;;;;;;76.78;31.20;;;;;;;0.49;100.00;102507.63;4996411;28;20438;-80
2023/02/15 04:06:53;;;;;;;72.93;27.38;;;;;;;0.38;100.00;102505.41;4999408;28;20046;-78
2023/02/15 04:12:03;;;;;;;76.65;28.50;;;;;;;0.39;100.00;102501.94;4986890;28;20430;-80
2023/02/15 04:17:12;;;;;;;75.88;28.42;;;;;;;0.38;100.00;102507.97;4989832;28;20034;-79
2023/02/15 04:25:09;;;;;;;73.60;27.80;;;;;;;0.34;100.00;102508.09;5012470;28;20052;-80
2023/02/15 04:27:35;;;;;;;77.28;29.65;;;;;;;0.27;100.00;102506.63;4994075;28;20029;-80
2023/02/15 04:30:00;;;;;;;71.05;28.35;;;;;;;0.31;100.00;102503.91;5006443;28;20041;-79
2023/02/15 04:32:26;;;;;;;75.93;28.90;;;;;;;0.26;100.00;102503.22;4974109;28;20724;-79
2023/02/15 04:34:52;;;;;;;69.72;27.38;;;;;;;0.26;100.00;102510.03;4992102;28;20041;-79
2023/02/15 04:37:17;;;;;;;67.57;27.25;;;;;;;0.28;100.00;102503.19;4977731;28;20060;-79
2023/02/15 04:39:43;;;;;;;68.53;26.92;;;;;;;0.32;100.00;102499.63;4993074;28;21794;-80
2023/02/15 04:42:08;;;;;;;71.53;28.17;;;;;;;0.36;100.00;102499.50;4991750;28;20688;-79
2023/02/15 04:44:34;;;;;;;74.60;30.10;;;;;;;0.31;100.00;102498.00;4994761;28;20053;-79
2023/02/15 04:46:59;;;;;;;76.32;29.15;;;;;;;0.27;100.00;102498.97;4993085;28;20653;-79
2023/02/15 04:49:25;;;;;;;71.63;28.10;;;;;;;0.27;100.00;102499.81;4995137;28;20026;-79
2023/02/15 04:51:50;;;;;;;72.53;28.35;;;;;;;0.12;100.00;102502.81;4992816;28;20034;-81
2023/02/15 04:54:15;;;;;;;71.70;28.00;;;;;;;0.14;100.00;102501.88;4993113;28;20486;-80
2023/02/15 04:56:42;;;;;;;70.80;26.08;;;;;;;0.18;100.00;102495.81;4991343;28;20042;-79
2023/02/15 04:59:10;;;;;;;75.88;29.23;;;;;;;0.14;100.00;102494.22;4992713;28;20069;-79
2023/02/15 05:01:36;;;;;;;77.70;29.10;;;;;;;0.14;100.00;102490.84;5008306;28;20503;-80
2023/02/15 05:04:02;;;;;;;70.03;27.15;;;;;;;0.07;100.00;102497.03;4975355;28;20077;-80
2023/02/15 05:06:28;;;;;;;82.50;30.35;;;;;;;0.13;100.00;102497.69;4993731;28;20046;-80
2023/02/15 05:08:53;;;;;;;79.20;30.98;;;;;;;0.13;100.00;102478.97;4979338;28;20029;-80
2023/02/15 05:11:18;;;;;;;72.78;27.60;;;;;;;0.07;100.00;102489.38;4993909;28;20723;-80
2023/02/15 05:13:44;;;;;;;76.47;30.52;;;;;;;0.08;100.00;102489.31;4994741;28;20030;-79
2023/02/15 05:16:09;;;;;;;78.00;28.70;;;;;;;0.06;100.00;102486.00;5010061;28;20037;-80
2023/02/15 05:18:35;;;;;;;74.15;29.05;;;;;;;0.07;100.00;102480.00;5010109;28;20038;-80
2023/02/15 05:21:00;;;;;;;72.32;27.00;;;;;;;0.09;100.00;102478.22;5004731;28;20041;-80
2023/02/15 05:23:26;;;;;;;71.55;27.77;;;;;;;0.10;100.00;102474.81;4990558;28;20088;-80
2023/02/15 05:28:37;;;;;;;78.18;28.63;;;;;;;0.00;100.00;102473.44;5010650;28;20520;-80
2023/02/15 05:31:05;;;;;;;75.88;29.27;;;;;;;-0.01;100.00;102471.75;4990603;28;20108;-78
2023/02/15 05:33:31;;;;;;;67.90;28.27;;;;;;;-0.08;100.00;102468.53;5005780;28;20033;-79
2023/02/15 05:35:56;;;;;;;67.78;25.23;;;;;;;-0.03;100.00;102463.31;5007322;28;20088;-79
2023/02/15 05:38:22;;;;;;;72.68;28.13;;;;;;;-0.08;100.00;102472.81;4990441;28;20038;-79
2023/02/15 05:40:47;;;;;;;73.10;28.40;;;;;;;-0.03;100.00;102474.34;5006980;28;20113;-82
2023/02/15 05:43:13;;;;;;;68.25;27.13;;;;;;;-0.10;100.00;102466.91;4990255;28;20782;-79
2023/02/15 05:45:38;;;;;;;68.43;26.65;;;;;;;-0.08;100.00;102470.25;4975503;28;20399;-80
2023/02/15 05:48:03;;;;;;;70.97;26.92;;;;;;;-0.07;100.00;102470.22;4990929;28;20018;-80
2023/02/15 05:50:29;;;;;;;76.07;28.02;;;;;;;-0.09;100.00;102466.88;4974763;28;20038;-80
2023/02/15 05:52:57;;;;;;;74.30;28.13;;;;;;;-0.10;100.00;102472.84;4991972;28;20031;-79
2023/02/15 05:55:22;;;;;;;73.35;26.77;;;;;;;-0.11;100.00;102471.19;4990656;28;20107;-79
2023/02/15 05:57:48;;;;;;;72.97;27.40;;;;;;;-0.06;100.00;102469.34;4990447;28;20041;-79
2023/02/15 06:00:14;;;;;;;71.82;26.90;;;;;;;-0.06;100.00;102471.91;4972220;28;20034;-79
2023/02/15 06:02:40;;;;;;;69.72;26.27;;;;;;;-0.12;100.00;102472.06;4992194;28;20085;-79
2023/02/15 06:05:06;;;;;;;74.57;28.55;;;;;;;-0.06;100.00;102473.59;4978488;28;20042;-79
2023/02/15 06:07:31;;;;;;;75.03;28.02;;;;;;;-0.07;100.00;102472.78;4995390;28;20621;-79
2023/02/15 06:09:57;;;;;;;69.18;26.05;;;;;;;-0.13;100.00;102478.06;4995099;28;20034;-80
2023/02/15 06:12:23;;;;;;;71.85;27.30;;;;;;;-0.09;100.00;102477.09;4992972;28;20038;-79
2023/02/15 06:14:48;;;;;;;70.30;28.27;;;;;;;-0.19;100.00;102475.66;5006522;28;20038;-80
2023/02/15 06:17:14;;;;;;;74.40;26.52;;;;;;;-0.14;100.00;102478.09;4975078;28;20034;-79
2023/02/15 06:19:39;;;;;;;72.38;26.60;;;;;;;-0.15;100.00;102478.97;5004935;28;20030;-80
2023/02/15 06:22:06;;;;;;;77.25;27.17;;;;;;;-0.18;100.00;102479.91;5026280;28;20466;-82
2023/02/15 06:24:31;;;;;;;71.25;26.77;;;;;;;-0.18;100.00;102479.91;5010591;28;22218;-80
2023/02/15 06:26:57;;;;;;;73.50;26.85;;;;;;;-0.11;100.00;102475.47;5024670;28;20036;-78
2023/02/15 06:29:22;;;;;;;73.35;28.38;;;;;;;-0.21;100.00;102485.94;4977086;28;20393;-79
2023/02/15 06:31:48;;;;;;;72.43;26.40;;;;;;;-0.20;100.00;102490.13;5004910;28;20044;-79
2023/02/15 06:34:13;;;;;;;66.22;25.13;;;;;;;-0.13;100.00;102489.94;4973452;28;20045;-80
2023/02/15 06:36:39;;;;;;;81.07;28.15;;;;;;;-0.09;100.00;102494.09;4988732;28;20042;-80
2023/02/15 06:39:04;;;;;;;65.80;27.08;;;;;;;-0.12;100.00;102487.38;4990139;28;20061;-78
2023/02/15 06:41:30;;;;;;;75.20;26.58;;;;;;;-0.17;100.00;102485.81;4990330;28;22687;-79
2023/02/15 06:43:55;;;;;;;73.35;27.65;;;;;;;-0.12;100.00;102484.00;5009157;28;20037;-80
2023/02/15 06:46:21;;;;;;;68.20;27.58;;;;;;;-0.17;100.00;102488.38;4991497;28;20034;-80
2023/02/15 06:48:46;;;;;;;67.32;25.83;;;;;;;-0.10;100.00;102477.94;4994073;28;20539;-80
2023/02/15 06:51:12;;;;;;;70.97;27.38;;;;;;;-0.16;100.00;102487.50;5009144;28;20502;-80
2023/02/15 06:53:37;;;;;;;68.95;27.02;;;;;;;-0.16;100.00;102484.97;4990214;28;20093;-80
2023/02/15 06:56:06;;;;;;;72.75;26.52;;;;;;;-0.13;100.00;102475.50;4989413;28;20042;-81
2023/02/15 06:58:41;;;;;;;72.72;25.50;;;;;;;-0.17;100.00;102489.25;5010892;28;20104;-79
2023/02/15 07:01:09;;;;;;;81.82;28.67;;;;;;;-0.15;100.00;102484.06;4994213;28;20034;-79
2023/02/15 07:03:35;;;;;;;75.10;26.23;;;;;;;-0.14;100.00;102476.38;4991670;28;20068;-79
2023/02/15 07:06:01;;;;;;;69.97;25.02;;;;;;;-0.14;100.00;102480.66;4991975;28;20048;-80
2023/02/15 07:08:27;;;;;;;65.20;26.73;;;;;;;-0.09;100.00;102483.91;5009610;28;20606;-80
2023/02/15 07:10:54;;;;;;;67.85;26.83;;;;;;;-0.15;100.00;102474.72;4979528;28;20052;-79
2023/02/15 07:13:20;;;;;;;71.35;27.85;;;;;;;-0.11;100.00;102478.84;4996937;28;20474;-79
2023/02/15 07:15:47;;;;;;;68.20;26.48;;;;;;;-0.13;100.00;102470.41;4992638;28;20042;-79
2023/02/15 07:18:12;;;;;;;69.28;27.60;;;;;;;-0.06;100.00;102468.50;4978800;28;20037;-79
2023/02/15 07:20:40;;;;;;;68.05;26.05;;;;;;;-0.02;100.00;102470.91;5009121;28;20042;-80
2023/02/15 07:23:05;;;;;;;66.20;25.52;;;;;;;-0.12;100.00;102466.13;4993182;28;20042;-82
2023/02/15 07:25:31;;;;;;;66.60;24.98;;;;;;;-0.03;100.00;102463.31;5023926;28;20046;-79
2023/02/15 07:28:01;;;;;;;65.10;27.52;;;;;;;-0.03;100.00;102456.47;4998979;28;20161;-80
2023/02/15 07:30:27;;;;;;;69.40;26.63;;;;;;;0.00;100.00;102453.03;4982834;28;20029;-80
2023/02/15 07:35:59;;;;;;;70.53;26.27;;;;;;;0.06;100.00;102441.75;4990595;28;20042;-80
2023/02/15 07:38:26;;;;;;;68.85;26.02;;;;;;;0.11;100.00;102450.94;4996183;28;20493;-81
2023/02/15 07:40:51;;;;;;;72.07;26.52;;;;;;;0.10;100.00;102431.44;5006792;28;20561;-79
2023/02/15 07:43:17;;;;;;;69.82;25.38;;;;;;;0.16;100.00;102435.50;4982010;28;20030;-79
2023/02/15 07:45:43;;;;;;;64.13;24.52;;;;;;;0.16;100.00;102438.06;4995567;28;20037;-80
2023/02/15 07:48:09;;;;;;;72.82;25.67;;;;;;;0.16;100.00;102436.34;4996502;28;20037;-82
2023/02/15 07:50:34;;;;;;;67.40;24.33;;;;;;;0.25;100.00;102432.66;4993222;28;20054;-79
2023/02/15 07:53:04;;;;;;;62.35;25.15;;;;;;;0.29;100.00;102435.97;4992282;28;20041;-80
2023/02/15 07:55:30;;;;;;;60.17;22.80;;;;;;;0.34;100.00;102440.03;5008764;28;20483;-79
2023/02/15 07:57:55;;;;;;;66.38;24.48;;;;;;;0.35;100.00;102434.03;5010081;28;20083;-79
2023/02/15 08:00:24;;;;;;;63.95;25.45;;;;;;;0.43;100.00;102433.78;4977329;28;20041;-80
2023/02/15 08:03:13;;;;;;;63.45;24.92;;;;;;;0.47;100.00;102430.25;5011105;28;20116;-79
2023/02/15 08:05:44;;;;;;;63.30;25.35;;;;;;;0.47;100.00;102419.19;4993199;28;20052;-80
2023/02/15 08:08:29;;;;;;;63.55;26.10;;;;;;;0.49;100.00;102415.72;4992249;28;20054;-79
2023/02/15 08:11:28;;;;;;;55.85;23.92;;;;;;;0.55;100.00;102420.63;4990959;28;20045;-79
2023/02/15 08:13:59;;;;;;;58.95;23.08;;;;;;;0.59;100.00;102413.69;4992721;28;20164;-80
2023/02/15 08:16:29;;;;;;;56.65;22.75;;;;;;;0.75;100.00;102409.75;5023901;28;20113;-79
2023/02/15 08:18:56;;;;;;;65.28;24.58;;;;;;;0.84;100.00;102407.75;4995824;28;20066;-79
2023/02/15 08:21:22;;;;;;;63.28;24.77;;;;;;;0.94;100.00;102403.97;4991906;28;20398;-80
2023/02/15 08:23:48;;;;;;;59.40;24.00;;;;;;;0.99;100.00;102412.31;4992105;28;20096;-81
2023/02/15 08:26:14;;;;;;;62.05;23.42;;;;;;;1.22;100.00;102414.03;4996284;28;20041;-79
2023/02/15 08:28:41;;;;;;;54.55;23.92;;;;;;;1.57;100.00;102411.91;5015661;28;20672;-79
2023/02/15 08:31:08;;;;;;;50.95;21.80;;;;;;;2.00;100.00;102410.25;4981065;28;20127;-79
2023/02/15 08:33:34;;;;;;;51.47;21.98;;;;;;;2.41;100.00;102410.28;5000472;28;20037;-79
2023/02/15 08:36:05;;;;;;;62.20;22.25;;;;;;;2.91;97.78;102398.78;4974755;28;20041;-82
2023/02/15 08:38:31;;;;;;;49.60;20.67;;;;;;;3.21;94.80;102393.19;5010414;28;20026;-80
2023/02/15 08:40:57;;;;;;;47.95;21.25;;;;;;;3.26;92.21;102388.69;4995765;28;20486;-80
2023/02/15 08:43:22;;;;;;;55.35;20.15;;;;;;;3.63;91.34;102385.25;4998633;28;20048;-80
2023/02/15 08:45:47;;;;;;;46.72;21.20;;;;;;;3.98;89.52;102380.16;4997453;28;20034;-78
2023/02/15 08:48:16;;;;;;;48.20;20.52;;;;;;;4.00;88.09;102391.19;4994916;28;20033;-80
2023/02/15 08:50:41;;;;;;;48.00;21.38;;;;;;;4.10;87.08;102387.25;4975147;28;20042;-80
2023/02/15 08:53:07;;;;;;;42.72;19.35;;;;;;;4.61;86.33;102392.44;4976310;28;20060;-80
2023/02/15 08:55:32;;;;;;;38.78;17.95;;;;;;;4.67;83.65;102381.00;4996245;28;20046;-81
2023/02/15 08:57:58;;;;;;;40.40;18.17;;;;;;;4.43;84.76;102385.69;4994090;28;20029;-78
2023/02/15 09:00:23;;;;;;;38.88;17.50;;;;;;;4.53;84.89;102389.44;4974818;28;20457;-79
2023/02/15 09:02:49;;;;;;;43.00;20.10;;;;;;;4.04;86.52;102390.13;4992543;28;20033;-80
2023/02/15 09:05:14;;;;;;;40.80;17.77;;;;;;;4.22;85.46;102396.13;4976174;28;20045;-81
2023/02/15 09:07:40;;;;;;;39.05;18.33;;;;;;;4.26;86.78;102391.66;5006448;28;20029;-79
2023/02/15 09:10:06;;;;;;;42.63;16.92;;;;;;;4.26;85.09;102391.66;4993129;28;20084;-80
2023/02/15 09:12:32;;;;;;;47.10;19.05;;;;;;;4.69;84.60;102381.78;4993130;28;20036;-80
2023/02/15 09:14:57;;;;;;;39.45;18.73;;;;;;;4.34;84.38;102383.59;4992528;28;20034;-81
2023/02/15 09:17:22;;;;;;;39.85;18.30;;;;;;;4.33;85.44;102389.59;5006482;28;20041;-80
2023/02/15 09:19:48;;;;;;;40.75;18.48;;;;;;;4.22;86.18;102390.13;4992434;28;20041;-82
2023/02/15 09:22:13;;;;;;;42.75;18.15;;;;;;;3.93;86.85;102394.97;4995554;28;20063;-81
2023/02/15 09:24:39;;;;;;;41.90;18.80;;;;;;;4.00;87.84;102385.25;4996035;28;20038;-80
2023/02/15 09:27:04;;;;;;;39.85;19.27;;;;;;;3.95;88.54;102388.00;5017871;28;20053;-80
2023/02/15 09:29:30;;;;;;;44.08;18.42;;;;;;;4.04;88.76;102382.44;4992712;28;20034;-80
2023/02/15 09:31:55;;;;;;;42.83;18.50;;;;;;;4.17;88.49;102381.84;4991417;28;20041;-79
2023/02/15 09:34:22;;;;;;;42.22;19.00;;;;;;;4.17;88.39;102381.84;4987853;28;20286;-80
2023/02/15 09:36:48;;;;;;;47.05;19.95;;;;;;;4.13;89.18;102380.34;4990531;28;20044;-79
2023/02/15 09:39:17;;;;;;;42.10;18.25;;;;;;;4.13;89.96;102381.16;4989230;28;20037;-78
2023/02/15 09:41:53;;;;;;;44.28;19.20;;;;;;;4.13;90.12;102381.16;4994836;28;20182;-79
2023/02/15 09:44:46;;;;;;;44.90;18.90;;;;;;;4.25;89.98;102382.28;4994119;28;20121;-78
2023/02/15 09:47:43;;;;;;;42.92;19.63;;;;;;;4.20;88.93;102390.22;4992438;28;20108;-78
2023/02/15 09:50:28;;;;;;;43.83;18.85;;;;;;;4.19;89.94;102373.16;4990875;28;20054;-79
2023/02/15 09:52:53;;;;;;;42.92;17.65;;;;;;;4.01;89.71;102374.91;4976699;28;20034;-78
2023/02/15 09:55:56;;;;;;;42.13;19.20;;;;;;;4.02;90.71;102379.13;4994313;28;20042;-79
2023/02/15 09:58:57;;;;;;;46.33;20.08;;;;;;;4.08;90.82;102381.38;5011526;28;20041;-78
2023/02/15 10:01:49;;;;;;;43.58;19.52;;;;;;;4.17;90.36;102376.72;5008292;28;20042;-80
2023/02/15 10:05:00;;;;;;;48.75;20.38;;;;;;;4.26;90.02;102376.25;4997739;28;20038;-80
2023/02/15 10:07:51;;;;;;;47.42;19.70;;;;;;;4.23;90.71;102372.09;4958430;28;20053;-79
2023/02/15 10:10:42;;;;;;;40.40;18.92;;;;;;;4.35;91.39;102374.94;4994057;28;20045;-78
2023/02/15 10:13:25;;;;;;;46.70;19.88;;;;;;;4.42;90.76;102379.69;5012505;28;20061;-79
2023/02/15 10:16:15;;;;;;;40.67;18.80;;;;;;;4.48;90.32;102376.00;4991741;28;20042;-79
2023/02/15 10:19:18;;;;;;;38.28;17.90;;;;;;;4.65;90.27;102380.28;5012042;28;20618;-78
2023/02/15 10:22:03;;;;;;;44.25;19.75;;;;;;;4.61;89.62;102378.78;4990398;28;20041;-80
2023/02/15 10:24:43;;;;;;;42.70;19.52;;;;;;;4.56;89.15;102378.16;5012585;28;20113;-81
2023/02/15 10:27:18;;;;;;;38.95;17.45;;;;;;;4.56;89.58;102379.03;4993036;28;20088;-79
2023/02/15 10:30:12;;;;;;;41.20;18.77;;;;;;;4.57;89.98;102369.56;4992283;28;20142;-79
2023/02/15 10:32:58;;;;;;;40.58;19.20;;;;;;;4.74;89.10;102371.25;4993063;28;20034;-80
2023/02/15 10:36:02;;;;;;;38.35;19.02;;;;;;;4.81;88.57;102375.19;4991675;28;20034;-79
2023/02/15 10:38:33;;;;;;;;;;;;;;;4.93;87.81;102368.56;5011338;28;20029;-79
2023/02/15 10:41:11;;;;;;;40.65;18.00;;;;;;;5.00;88.01;102365.59;5011284;28;19928;-79
2023/02/15 10:43:58;;;;;;;42.13;19.00;;;;;;;4.99;87.96;102363.09;5026354;28;20053;-79
2023/02/15 10:46:54;;;;;;;40.33;18.63;;;;;;;5.02;88.02;102365.50;5005711;28;20104;-78
2023/02/15 10:49:46;;;;;;;38.92;17.58;;;;;;;5.08;88.84;102367.75;4998553;28;20138;-79
2023/02/15 10:52:31;;;;;;;37.17;18.65;;;;;;;5.30;86.96;102358.88;4993065;28;20056;-79
2023/02/15 10:55:39;;;;;;;41.80;19.40;;;;;;;5.30;88.04;102358.88;4983275;28;20626;-79
2023/02/15 10:58:17;;;;;;;45.75;20.17;;;;;;;5.42;87.44;102353.06;4952524;28;20047;-79
2023/02/15 11:00:49;;;;;;;39.30;18.48;;;;;;;5.57;86.93;102352.19;4989108;28;20038;-79
2023/02/15 11:03:25;;;;;;;41.67;19.52;;;;;;;5.49;86.38;102353.56;5013575;28;20045;-79
2023/02/15 11:05:59;;;;;;;39.17;18.17;;;;;;;5.53;86.67;102347.31;4990006;28;20045;-77
2023/02/15 11:08:29;;;;;;;42.70;19.05;;;;;;;5.52;87.54;102349.06;5004267;28;20080;-79
2023/02/15 11:11:08;;;;;;;39.83;18.67;;;;;;;5.56;87.32;102344.59;4990782;28;20516;-80
2023/02/15 11:13:38;;;;;;;36.60;18.27;;;;;;;5.78;86.73;102341.63;5009679;28;20041;-79
2023/02/15 11:16:11;;;;;;;39.72;17.88;;;;;;;5.83;85.21;102337.06;5003600;28;20351;-79
2023/02/15 11:18:41;;;;;;;38.63;18.63;;;;;;;5.85;87.06;102340.38;5005581;28;20033;-79
2023/02/15 11:21:22;;;;;;;35.50;17.75;;;;;;;5.99;84.89;102337.00;5006445;28;20115;-80
2023/02/15 11:23:48;;;;;;;41.95;18.13;;;;;;;6.00;85.75;102341.25;5003558;28;20088;-79
2023/02/15 11:26:36;;;;;;;55.65;25.15;;;;;;;6.07;86.29;102336.59;4989635;28;20049;-79
2023/02/15 11:29:18;;;;;;;38.90;18.25;;;;;;;6.22;86.23;102335.69;5008572;28;20522;-78
2023/02/15 11:31:48;;;;;;;40.83;17.52;;;;;;;6.32;84.91;102323.91;4990171;28;20045;-78
2023/02/15 11:34:24;;;;;;;36.05;17.10;;;;;;;6.36;84.03;102317.66;5005424;28;20570;-79
2023/02/15 11:36:52;;;;;;;39.58;18.45;;;;;;;6.43;84.14;102321.53;4990640;28;20046;-79
2023/02/15 11:39:21;;;;;;;35.65;17.00;;;;;;;6.56;84.36;102323.38;4992497;28;20041;-81
2023/02/15 11:41:53;;;;;;;39.08;17.58;;;;;;;6.49;84.86;102316.94;4990196;28;20049;-79
2023/02/15 11:44:25;;;;;;;35.03;17.05;;;;;;;6.56;83.06;102306.16;5007553;28;20038;-78
2023/02/15 11:46:51;;;;;;;33.80;16.35;;;;;;;6.66;82.56;102305.63;5010670;28;20046;-79
2023/02/15 11:49:34;;;;;;;37.13;17.90;;;;;;;6.77;82.70;102301.44;5001076;28;20152;-79
2023/02/15 11:52:01;;;;;;;;;;;;;;;6.76;82.80;102292.06;4986909;28;20038;-79
2023/02/15 11:54:30;;;;;;;57.20;22.63;;;;;;;6.89;82.73;102292.13;4995649;28;19917;-79
2023/02/15 11:57:11;;;;;;;42.28;19.75;;;;;;;6.85;83.32;102289.84;5010067;28;20030;-80